Time;durP1;ratioP1;P1;durP2;ratioP2;P2;SDS_P1;SDS_P2;PMS_P1;PMS_P2;Temp;Humidity;BMP_temperature;BMP_pressure;BME280_temperature;BME280_humidity;BME280_pressure;Samples;Min_cycle;Max_cycle;Signal;HPM_P1;HPM_P2
2023/10/30 00:01:35;;;;;;;31.88;19.98;;;;;;;;;;5041761;28;20553;-71
2023/10/30 00:04:00;;;;;;;28.63;18.42;;;;;;;;;;5043468;28;20109;-70
2023/10/30 00:06:25;;;;;;;40.25;24.20;;;;;;;;;;5042789;28;20202;-72
2023/10/30 00:08:51;;;;;;;57.40;34.05;;;;;;;;;;5043046;28;20040;-71
2023/10/30 00:11:16;;;;;;;62.08;34.58;;;;;;;;;;5042762;28;20029;-73
2023/10/30 00:13:42;;;;;;;31.20;18.50;;;;;;;;;;5045630;28;20475;-70
2023/10/30 00:16:10;;;;;;;31.55;18.50;;;;;;;;;;5045271;28;20425;-70
2023/10/30 00:18:36;;;;;;;40.58;24.15;;;;;;;;;;5038197;28;20089;-72
2023/10/30 00:21:01;;;;;;;39.22;23.92;;;;;;;;;;5036520;28;20032;-69
2023/10/30 00:23:28;;;;;;;24.10;14.10;;;;;;;;;;5042236;28;20024;-72
2023/10/30 00:25:54;;;;;;;17.83;9.25;;;;;;;;;;5041932;28;20032;-70
2023/10/30 00:28:20;;;;;;;10.77;7.60;;;;;;;;;;5044836;28;20036;-70
2023/10/30 00:30:45;;;;;;;8.65;5.05;;;;;;;;;;5041656;28;20282;-73
2023/10/30 00:33:10;;;;;;;7.07;5.22;;;;;;;;;;5043783;28;20037;-71
2023/10/30 00:35:36;;;;;;;7.50;5.57;;;;;;;;;;5043991;28;20122;-72
2023/10/30 00:38:01;;;;;;;10.63;7.45;;;;;;;;;;5043990;28;20059;-70
2023/10/30 00:40:27;;;;;;;28.58;18.83;;;;;;;;;;5043437;28;20036;-71
2023/10/30 00:42:52;;;;;;;34.58;24.17;;;;;;;;;;5042661;28;20025;-70
2023/10/30 00:45:17;;;;;;;27.55;18.27;;;;;;;;;;5040660;28;20101;-71
2023/10/30 00:47:43;;;;;;;21.70;15.45;;;;;;;;;;5042457;28;20486;-71
2023/10/30 00:50:08;;;;;;;20.63;14.57;;;;;;;;;;5042644;28;20563;-73
2023/10/30 00:52:34;;;;;;;21.75;14.40;;;;;;;;;;5033281;28;20033;-71
2023/10/30 00:54:59;;;;;;;12.32;8.70;;;;;;;;;;5045539;28;20169;-71
2023/10/30 00:57:24;;;;;;;17.42;11.32;;;;;;;;;;5041544;28;20644;-73
2023/10/30 00:59:50;;;;;;;19.83;12.93;;;;;;;;;;5042674;28;20039;-71
2023/10/30 01:02:15;;;;;;;17.20;11.52;;;;;;;;;;5044514;28;20033;-71
2023/10/30 01:04:41;;;;;;;19.52;11.75;;;;;;;;;;5043009;28;20033;-70
2023/10/30 01:07:07;;;;;;;25.83;16.13;;;;;;;;;;5041795;28;20128;-71
2023/10/30 01:09:32;;;;;;;27.55;16.00;;;;;;;;;;5034678;28;20027;-72
2023/10/30 01:11:58;;;;;;;44.35;25.00;;;;;;;;;;5042449;28;20503;-70
2023/10/30 01:14:24;;;;;;;38.28;23.77;;;;;;;;;;5043655;28;20344;-71
2023/10/30 01:16:49;;;;;;;24.00;16.95;;;;;;;;;;5043431;28;20098;-72
2023/10/30 01:19:15;;;;;;;24.20;16.63;;;;;;;;;;5043677;28;20029;-71
2023/10/30 01:21:40;;;;;;;14.50;9.00;;;;;;;;;;5042069;28;20403;-70
2023/10/30 01:24:06;;;;;;;9.75;6.97;;;;;;;;;;5043078;28;20033;-70
2023/10/30 01:26:31;;;;;;;8.55;6.38;;;;;;;;;;5031097;28;20033;-69
2023/10/30 01:28:57;;;;;;;10.48;6.75;;;;;;;;;;5041575;28;20024;-71
2023/10/30 01:31:27;;;;;;;14.70;9.52;;;;;;;;;;5040625;28;20169;-71
2023/10/30 01:33:53;;;;;;;13.43;9.30;;;;;;;;;;5042344;28;20379;-71
2023/10/30 01:36:18;;;;;;;14.00;8.52;;;;;;;;;;5043091;28;20036;-73
2023/10/30 01:38:43;;;;;;;12.88;7.13;;;;;;;;;;5041414;28;20029;-71
2023/10/30 01:41:09;;;;;;;6.60;5.20;;;;;;;;;;5042144;28;20075;-71
2023/10/30 01:43:34;;;;;;;5.82;4.60;;;;;;;;;;5042052;28;20016;-73
2023/10/30 01:46:00;;;;;;;6.50;4.57;;;;;;;;;;5042580;28;20045;-71
2023/10/30 01:48:27;;;;;;;11.27;8.02;;;;;;;;;;5041596;28;20104;-71
2023/10/30 01:50:53;;;;;;;12.18;7.68;;;;;;;;;;5043193;28;20680;-71
2023/10/30 01:53:19;;;;;;;11.48;7.32;;;;;;;;;;5042254;28;20108;-73
2023/10/30 01:55:45;;;;;;;8.00;6.50;;;;;;;;;;5041276;28;20131;-72
2023/10/30 01:58:10;;;;;;;7.07;4.78;;;;;;;;;;5042474;28;20111;-70
2023/10/30 02:00:36;;;;;;;4.18;3.10;;;;;;;;;;5043302;28;20031;-70
2023/10/30 02:03:03;;;;;;;4.72;3.00;;;;;;;;;;5040808;28;20036;-70
2023/10/30 02:05:28;;;;;;;5.38;3.22;;;;;;;;;;5042422;28;20408;-72
2023/10/30 02:07:54;;;;;;;5.30;3.60;;;;;;;;;;5042777;28;20036;-70
2023/10/30 02:10:19;;;;;;;5.68;3.67;;;;;;;;;;5039032;28;20440;-72
2023/10/30 02:12:47;;;;;;;5.75;3.97;;;;;;;;;;5041937;28;20021;-71
2023/10/30 02:15:13;;;;;;;11.07;8.00;;;;;;;;;;5040025;28;20064;-70
2023/10/30 02:17:38;;;;;;;8.10;5.28;;;;;;;;;;5040776;28;20242;-73
2023/10/30 02:20:04;;;;;;;8.88;5.93;;;;;;;;;;5033162;28;20024;-70
2023/10/30 02:22:29;;;;;;;9.07;5.70;;;;;;;;;;5040299;28;20109;-71
2023/10/30 02:24:54;;;;;;;8.23;5.57;;;;;;;;;;5041912;28;20340;-70
2023/10/30 02:27:20;;;;;;;14.93;9.02;;;;;;;;;;5042409;28;20063;-70
2023/10/30 02:29:45;;;;;;;14.40;9.50;;;;;;;;;;5043033;28;20032;-70
2023/10/30 02:32:11;;;;;;;10.27;6.57;;;;;;;;;;5042492;28;20037;-71
2023/10/30 02:34:36;;;;;;;8.20;4.68;;;;;;;;;;5041613;28;20021;-70
2023/10/30 02:37:02;;;;;;;5.07;4.10;;;;;;;;;;5038879;28;20384;-70
2023/10/30 02:39:32;;;;;;;6.57;4.70;;;;;;;;;;5035130;28;20965;-71
2023/10/30 02:41:58;;;;;;;6.25;4.10;;;;;;;;;;5038375;28;20052;-71
2023/10/30 02:44:24;;;;;;;6.70;4.72;;;;;;;;;;5029108;28;20435;-71
2023/10/30 02:46:50;;;;;;;6.00;4.25;;;;;;;;;;5038210;28;20029;-71
2023/10/30 02:49:15;;;;;;;7.18;5.00;;;;;;;;;;5042455;28;20081;-70
2023/10/30 02:51:40;;;;;;;6.95;4.60;;;;;;;;;;5040027;28;20083;-70
2023/10/30 02:54:06;;;;;;;7.53;4.88;;;;;;;;;;5041969;28;20425;-70
2023/10/30 02:56:31;;;;;;;7.50;4.40;;;;;;;;;;5030299;28;20345;-71
2023/10/30 02:58:59;;;;;;;5.38;3.25;;;;;;;;;;5040984;28;20025;-72
2023/10/30 03:01:24;;;;;;;5.22;2.88;;;;;;;;;;5040525;28;20017;-72
2023/10/30 03:03:49;;;;;;;6.30;3.30;;;;;;;;;;5040623;28;20396;-71
2023/10/30 03:06:15;;;;;;;5.32;3.42;;;;;;;;;;5059062;28;20171;-70
2023/10/30 03:08:40;;;;;;;5.03;3.97;;;;;;;;;;5040549;28;20040;-71
2023/10/30 03:11:06;;;;;;;6.25;4.68;;;;;;;;;;5041944;28;20104;-70
2023/10/30 03:13:32;;;;;;;5.90;3.70;;;;;;;;;;5040215;28;20058;-71
2023/10/30 03:15:57;;;;;;;6.95;3.70;;;;;;;;;;5039644;28;20072;-72
2023/10/30 03:18:22;;;;;;;6.40;3.50;;;;;;;;;;5041796;28;20039;-70
2023/10/30 03:20:48;;;;;;;5.53;3.38;;;;;;;;;;5042574;28;20025;-73
2023/10/30 03:23:13;;;;;;;5.03;3.22;;;;;;;;;;5045590;28;20024;-71
2023/10/30 03:25:39;;;;;;;13.90;8.95;;;;;;;;;;5043697;28;20029;-73
2023/10/30 03:28:04;;;;;;;25.33;16.90;;;;;;;;;;5044173;28;20033;-72
2023/10/30 03:30:29;;;;;;;76.57;49.08;;;;;;;;;;5047342;28;20329;-72
2023/10/30 03:32:55;;;;;;;41.20;28.92;;;;;;;;;;5043481;28;20032;-71
2023/10/30 03:35:20;;;;;;;53.70;38.10;;;;;;;;;;5042340;28;20037;-70
2023/10/30 03:37:45;;;;;;;23.70;16.17;;;;;;;;;;5043293;28;20668;-70
2023/10/30 03:40:11;;;;;;;28.63;21.92;;;;;;;;;;5041379;28;20044;-70
2023/10/30 03:42:37;;;;;;;36.10;26.08;;;;;;;;;;5043173;28;20082;-70
2023/10/30 03:45:02;;;;;;;32.33;24.38;;;;;;;;;;5042948;28;20043;-72
2023/10/30 03:47:27;;;;;;;27.00;22.10;;;;;;;;;;5043616;28;20044;-73
2023/10/30 03:49:53;;;;;;;23.05;17.98;;;;;;;;;;5044338;28;20118;-70
2023/10/30 03:52:19;;;;;;;20.08;13.18;;;;;;;;;;5043935;28;20032;-70
2023/10/30 03:54:44;;;;;;;12.18;9.57;;;;;;;;;;5042603;28;20025;-69
2023/10/30 03:57:09;;;;;;;10.30;8.65;;;;;;;;;;5044056;28;20094;-74
2023/10/30 03:59:35;;;;;;;10.63;8.38;;;;;;;;;;5042836;28;20025;-71
2023/10/30 04:02:01;;;;;;;13.98;9.68;;;;;;;;;;5043566;28;20025;-70
2023/10/30 04:04:26;;;;;;;9.80;7.82;;;;;;;;;;5044351;28;20040;-71
2023/10/30 04:06:52;;;;;;;13.50;9.93;;;;;;;;;;5042689;28;20043;-70
2023/10/30 04:09:17;;;;;;;9.10;7.22;;;;;;;;;;5035629;28;20448;-71
2023/10/30 04:11:45;;;;;;;8.73;5.88;;;;;;;;;;5043391;28;20089;-72
2023/10/30 04:14:10;;;;;;;6.18;4.63;;;;;;;;;;5037387;28;20037;-71
2023/10/30 04:16:35;;;;;;;11.75;9.45;;;;;;;;;;5038446;28;20017;-72
2023/10/30 04:19:01;;;;;;;6.57;5.60;;;;;;;;;;5042415;28;20033;-72
2023/10/30 04:21:26;;;;;;;9.25;5.35;;;;;;;;;;5045163;28;20032;-71
2023/10/30 04:23:52;;;;;;;9.88;5.20;;;;;;;;;;5043822;28;20029;-70
2023/10/30 04:26:19;;;;;;;7.10;5.50;;;;;;;;;;5045244;28;20130;-70
2023/10/30 04:28:44;;;;;;;9.65;8.23;;;;;;;;;;5044089;28;20025;-71
2023/10/30 04:31:10;;;;;;;10.15;7.50;;;;;;;;;;5034426;28;20711;-70
2023/10/30 04:33:35;;;;;;;10.50;6.10;;;;;;;;;;5040610;28;20432;-72
2023/10/30 04:36:01;;;;;;;7.25;5.78;;;;;;;;;;5042897;28;20447;-72
2023/10/30 04:38:27;;;;;;;6.07;4.50;;;;;;;;;;5043351;28;20063;-72
2023/10/30 04:40:52;;;;;;;8.75;5.28;;;;;;;;;;5042431;28;20021;-71
2023/10/30 04:43:17;;;;;;;11.23;5.70;;;;;;;;;;5057822;28;20028;-71
2023/10/30 04:45:43;;;;;;;10.15;6.80;;;;;;;;;;5042133;28;20109;-71
2023/10/30 04:48:09;;;;;;;7.28;5.70;;;;;;;;;;5033271;28;20452;-71
2023/10/30 04:50:34;;;;;;;9.00;6.68;;;;;;;;;;5042293;28;20089;-71
2023/10/30 04:53:00;;;;;;;11.25;6.07;;;;;;;;;;5038736;28;20424;-73
2023/10/30 04:55:26;;;;;;;10.95;8.18;;;;;;;;;;5033052;28;20451;-72
2023/10/30 04:57:51;;;;;;;10.75;8.43;;;;;;;;;;5032487;28;20033;-72
2023/10/30 05:00:17;;;;;;;9.50;8.00;;;;;;;;;;5031822;28;20451;-72
2023/10/30 05:02:46;;;;;;;11.82;7.30;;;;;;;;;;5032505;28;20025;-71
2023/10/30 05:05:11;;;;;;;12.05;7.93;;;;;;;;;;5031975;28;20036;-72
2023/10/30 05:07:37;;;;;;;13.27;8.27;;;;;;;;;;5030333;28;20037;-72
2023/10/30 05:10:03;;;;;;;10.80;8.77;;;;;;;;;;5031280;28;20025;-71
2023/10/30 05:12:28;;;;;;;12.68;9.93;;;;;;;;;;5032863;28;20458;-71
2023/10/30 05:14:53;;;;;;;15.20;9.63;;;;;;;;;;5032846;28;20017;-72
2023/10/30 05:17:19;;;;;;;13.43;10.07;;;;;;;;;;5033680;28;20115;-71
2023/10/30 05:19:44;;;;;;;14.13;9.05;;;;;;;;;;5041457;28;20032;-70
2023/10/30 05:22:10;;;;;;;15.07;9.88;;;;;;;;;;5040742;28;20052;-70
2023/10/30 05:24:35;;;;;;;15.68;11.63;;;;;;;;;;5034179;28;20042;-72
2023/10/30 05:27:00;;;;;;;17.23;11.35;;;;;;;;;;5033837;28;20039;-72
2023/10/30 05:29:26;;;;;;;11.48;7.15;;;;;;;;;;5041110;28;20433;-70
2023/10/30 05:31:51;;;;;;;8.68;6.68;;;;;;;;;;5043295;28;20025;-73
2023/10/30 05:34:16;;;;;;;17.00;10.50;;;;;;;;;;5034601;28;20051;-71
2023/10/30 05:36:42;;;;;;;14.80;9.50;;;;;;;;;;5035453;28;20048;-71
2023/10/30 05:39:07;;;;;;;13.45;9.40;;;;;;;;;;5040515;28;20456;-72
2023/10/30 05:41:32;;;;;;;13.18;8.70;;;;;;;;;;5041765;28;20032;-71
2023/10/30 05:43:58;;;;;;;10.98;7.85;;;;;;;;;;5036677;28;20036;-74
2023/10/30 05:46:23;;;;;;;19.48;11.13;;;;;;;;;;5035332;28;20032;-71
2023/10/30 05:48:48;;;;;;;17.90;11.80;;;;;;;;;;5042877;28;20043;-71
2023/10/30 05:51:14;;;;;;;21.27;13.13;;;;;;;;;;5040999;28;20033;-74
2023/10/30 05:53:40;;;;;;;19.10;12.63;;;;;;;;;;5042943;28;20100;-72
2023/10/30 05:56:05;;;;;;;19.38;11.60;;;;;;;;;;5037348;28;20360;-71
2023/10/30 05:58:31;;;;;;;15.70;10.02;;;;;;;;;;5028702;28;20027;-72
2023/10/30 06:00:56;;;;;;;18.48;12.32;;;;;;;;;;5036278;28;20349;-72
2023/10/30 06:03:21;;;;;;;20.10;13.13;;;;;;;;;;5042657;28;20032;-72
2023/10/30 06:05:47;;;;;;;18.80;12.90;;;;;;;;;;5042922;28;20025;-72
2023/10/30 06:08:13;;;;;;;19.77;14.38;;;;;;;;;;5043813;28;20028;-74
2023/10/30 06:10:38;;;;;;;28.38;20.83;;;;;;;;;;5041407;28;20036;-72
2023/10/30 06:13:04;;;;;;;18.92;13.68;;;;;;;;;;5040330;28;20111;-71
2023/10/30 06:15:30;;;;;;;15.25;10.68;;;;;;;;;;5038636;28;20294;-70
2023/10/30 06:17:56;;;;;;;12.48;9.93;;;;;;;;;;5030616;28;20356;-71
2023/10/30 06:20:22;;;;;;;16.63;10.48;;;;;;;;;;5041282;28;20033;-70
2023/10/30 06:22:48;;;;;;;13.77;9.85;;;;;;;;;;5041281;28;20331;-72
2023/10/30 06:25:13;;;;;;;11.07;8.75;;;;;;;;;;5033811;28;20021;-71
2023/10/30 06:27:41;;;;;;;10.75;9.02;;;;;;;;;;5038202;28;20035;-71
2023/10/30 06:30:07;;;;;;;10.43;8.77;;;;;;;;;;5033779;28;20025;-72
2023/10/30 06:32:32;;;;;;;9.02;7.40;;;;;;;;;;5033866;28;20033;-73
2023/10/30 06:34:58;;;;;;;12.10;8.63;;;;;;;;;;5038257;28;20032;-74
2023/10/30 06:37:23;;;;;;;12.02;7.53;;;;;;;;;;5042870;28;20753;-72
2023/10/30 06:39:48;;;;;;;14.60;9.98;;;;;;;;;;5043239;28;20149;-71
2023/10/30 06:42:14;;;;;;;16.45;8.35;;;;;;;;;;5039172;28;20029;-71
2023/10/30 06:44:39;;;;;;;12.75;8.32;;;;;;;;;;5040534;28;20025;-71
2023/10/30 06:47:05;;;;;;;12.63;9.30;;;;;;;;;;5039353;28;20074;-72
2023/10/30 06:49:30;;;;;;;12.35;7.93;;;;;;;;;;5030928;28;20048;-71
2023/10/30 06:51:56;;;;;;;9.75;6.90;;;;;;;;;;5031144;28;20021;-71
2023/10/30 06:54:21;;;;;;;15.10;9.13;;;;;;;;;;5033679;28;20429;-72
2023/10/30 06:56:46;;;;;;;12.50;7.97;;;;;;;;;;5033049;28;20024;-72
2023/10/30 06:59:14;;;;;;;18.95;8.05;;;;;;;;;;5032717;28;20032;-72
2023/10/30 07:01:43;;;;;;;13.15;9.20;;;;;;;;;;5032765;28;20032;-73
2023/10/30 07:04:10;;;;;;;13.85;8.90;;;;;;;;;;5033639;28;20392;-71
2023/10/30 07:06:36;;;;;;;15.02;11.65;;;;;;;;;;5031899;28;20060;-70
2023/10/30 07:09:01;;;;;;;22.00;13.00;;;;;;;;;;5034242;28;20078;-70
2023/10/30 07:11:26;;;;;;;18.77;10.77;;;;;;;;;;5038053;28;20032;-70
2023/10/30 07:13:52;;;;;;;19.40;9.93;;;;;;;;;;5043713;28;20017;-69
2023/10/30 07:16:17;;;;;;;11.65;8.15;;;;;;;;;;5032551;28;20498;-72
2023/10/30 07:18:43;;;;;;;12.95;9.13;;;;;;;;;;5034957;28;20075;-73
2023/10/30 07:21:08;;;;;;;10.65;7.75;;;;;;;;;;5033533;28;20037;-71
2023/10/30 07:23:34;;;;;;;10.15;7.43;;;;;;;;;;5032214;28;20029;-73
2023/10/30 07:26:00;;;;;;;9.77;5.55;;;;;;;;;;5039903;28;20116;-71
2023/10/30 07:28:25;;;;;;;7.88;6.15;;;;;;;;;;5043201;28;20039;-73
2023/10/30 07:30:50;;;;;;;9.20;6.50;;;;;;;;;;5048197;28;20013;-71
2023/10/30 07:33:16;;;;;;;9.52;5.43;;;;;;;;;;5041867;28;20021;-72
2023/10/30 07:35:41;;;;;;;7.20;5.45;;;;;;;;;;5043624;28;20447;-72
2023/10/30 07:38:06;;;;;;;7.50;4.93;;;;;;;;;;5044546;28;20146;-72
2023/10/30 07:40:32;;;;;;;16.38;12.15;;;;;;;;;;5044709;28;20090;-72
2023/10/30 07:42:57;;;;;;;21.88;14.85;;;;;;;;;;5044842;28;20116;-73
2023/10/30 07:45:23;;;;;;;21.65;16.27;;;;;;;;;;5042839;28;20029;-72
2023/10/30 07:47:49;;;;;;;19.15;14.25;;;;;;;;;;5043308;28;20033;-72
2023/10/30 07:50:14;;;;;;;17.30;12.63;;;;;;;;;;5042654;28;20403;-72
2023/10/30 07:52:40;;;;;;;18.55;11.25;;;;;;;;;;5041691;28;20060;-72
2023/10/30 07:55:06;;;;;;;16.38;11.02;;;;;;;;;;5043233;28;20025;-73
2023/10/30 07:57:32;;;;;;;18.02;10.25;;;;;;;;;;5043829;28;20063;-74
2023/10/30 07:59:57;;;;;;;16.30;10.27;;;;;;;;;;5042454;28;20532;-73
2023/10/30 08:02:22;;;;;;;13.98;10.18;;;;;;;;;;5043684;28;20037;-73
2023/10/30 08:04:48;;;;;;;15.85;10.90;;;;;;;;;;5045565;28;20044;-74
2023/10/30 08:07:13;;;;;;;16.08;11.20;;;;;;;;;;5043559;28;20116;-72
2023/10/30 08:09:39;;;;;;;14.18;10.88;;;;;;;;;;5047858;28;20028;-73
2023/10/30 08:12:04;;;;;;;14.90;10.82;;;;;;;;;;5044897;28;20036;-72
2023/10/30 08:14:30;;;;;;;17.13;10.32;;;;;;;;;;5045255;28;20040;-74
2023/10/30 08:16:56;;;;;;;18.27;10.90;;;;;;;;;;5042890;28;20440;-72
2023/10/30 08:19:21;;;;;;;17.13;10.40;;;;;;;;;;5043577;28;20106;-74
2023/10/30 08:21:46;;;;;;;15.18;10.18;;;;;;;;;;5045690;28;20104;-73
2023/10/30 08:24:12;;;;;;;13.02;10.27;;;;;;;;;;5044378;28;20078;-73
2023/10/30 08:26:37;;;;;;;13.25;9.95;;;;;;;;;;5044599;28;20041;-73
2023/10/30 08:29:02;;;;;;;16.08;10.65;;;;;;;;;;5041931;28;20082;-73
2023/10/30 08:31:28;;;;;;;17.75;11.68;;;;;;;;;;5043829;28;20020;-75
2023/10/30 08:33:54;;;;;;;16.05;10.77;;;;;;;;;;5043674;28;20437;-73
2023/10/30 08:36:22;;;;;;;16.67;10.88;;;;;;;;;;5044106;28;20041;-75
2023/10/30 08:38:48;;;;;;;15.57;11.07;;;;;;;;;;5043035;28;20484;-74
2023/10/30 08:41:19;;;;;;;22.02;11.93;;;;;;;;;;5043547;28;20031;-73
2023/10/30 08:43:44;;;;;;;18.90;11.38;;;;;;;;;;5045247;28;20025;-73
2023/10/30 08:46:15;;;;;;;16.50;10.98;;;;;;;;;;5044202;28;20031;-76
2023/10/30 08:48:40;;;;;;;18.65;12.07;;;;;;;;;;5042759;28;20106;-73
2023/10/30 08:51:05;;;;;;;16.15;11.85;;;;;;;;;;5046570;28;20020;-73
2023/10/30 08:53:31;;;;;;;24.02;12.15;;;;;;;;;;5047339;28;20020;-75
2023/10/30 08:55:56;;;;;;;20.08;14.23;;;;;;;;;;5043329;28;20508;-74
2023/10/30 08:58:22;;;;;;;20.77;12.90;;;;;;;;;;5044304;28;20103;-77
2023/10/30 09:00:47;;;;;;;24.15;13.85;;;;;;;;;;5045874;28;20333;-74
2023/10/30 09:03:13;;;;;;;19.35;11.60;;;;;;;;;;5043566;28;20040;-72
2023/10/30 09:05:38;;;;;;;15.98;9.73;;;;;;;;;;5044264;28;20029;-74
2023/10/30 09:08:03;;;;;;;14.48;8.23;;;;;;;;;;5045322;28;20041;-74
2023/10/30 09:10:32;;;;;;;23.10;12.48;;;;;;;;;;5043462;28;20031;-74
2023/10/30 09:12:58;;;;;;;21.58;9.13;;;;;;;;;;5045645;28;20443;-73
2023/10/30 09:15:23;;;;;;;31.70;13.10;;;;;;;;;;5045325;28;20060;-73
2023/10/30 09:17:48;;;;;;;8.95;5.55;;;;;;;;;;5042393;28;20055;-73
2023/10/30 09:20:14;;;;;;;6.63;4.53;;;;;;;;;;5044702;28;20371;-73
2023/10/30 09:22:39;;;;;;;8.80;6.40;;;;;;;;;;5043548;28;20032;-73
2023/10/30 09:25:06;;;;;;;20.85;9.68;;;;;;;;;;5042289;28;20033;-77
2023/10/30 09:27:31;;;;;;;5.85;4.05;;;;;;;;;;5044005;28;20414;-74
2023/10/30 09:29:57;;;;;;;16.35;6.00;;;;;;;;;;5042990;28;20064;-77
2023/10/30 09:32:23;;;;;;;7.60;5.75;;;;;;;;;;5042639;28;20402;-75
2023/10/30 09:34:48;;;;;;;35.30;15.90;;;;;;;;;;5042960;28;20066;-74
2023/10/30 09:37:14;;;;;;;8.02;4.28;;;;;;;;;;5045166;28;20144;-75
2023/10/30 09:39:40;;;;;;;4.35;3.22;;;;;;;;;;5042702;28;20458;-74
2023/10/30 09:42:07;;;;;;;6.65;3.05;;;;;;;;;;5044174;28;20021;-75
2023/10/30 09:44:33;;;;;;;22.13;7.35;;;;;;;;;;5045674;28;20580;-76
2023/10/30 09:46:59;;;;;;;9.07;4.65;;;;;;;;;;5042044;28;20131;-74
2023/10/30 09:49:24;;;;;;;5.93;2.85;;;;;;;;;;5042834;28;20027;-73
2023/10/30 09:51:51;;;;;;;5.82;2.80;;;;;;;;;;5044187;28;20021;-76
2023/10/30 09:54:17;;;;;;;17.23;6.95;;;;;;;;;;5042779;28;20184;-74
2023/10/30 09:56:43;;;;;;;6.93;4.40;;;;;;;;;;5043630;28;20033;-73
2023/10/30 09:59:10;;;;;;;4.15;2.15;;;;;;;;;;5042731;28;20119;-73
2023/10/30 10:01:35;;;;;;;2.33;1.92;;;;;;;;;;5044165;28;20029;-76
2023/10/30 10:04:01;;;;;;;6.68;2.95;;;;;;;;;;5042469;28;20086;-76
2023/10/30 10:06:26;;;;;;;2.80;1.95;;;;;;;;;;5042049;28;20483;-74
2023/10/30 10:08:51;;;;;;;4.13;1.98;;;;;;;;;;5042937;28;20325;-73
2023/10/30 10:11:20;;;;;;;4.35;2.10;;;;;;;;;;5044577;28;20057;-74
2023/10/30 10:13:48;;;;;;;3.72;1.90;;;;;;;;;;5044311;28;20035;-76
2023/10/30 10:16:14;;;;;;;5.07;2.38;;;;;;;;;;5043337;28;20106;-73
2023/10/30 10:18:39;;;;;;;3.60;2.00;;;;;;;;;;5043681;28;20033;-74
2023/10/30 10:21:08;;;;;;;4.43;2.55;;;;;;;;;;5042735;28;20083;-74
2023/10/30 10:23:34;;;;;;;36.88;21.90;;;;;;;;;;5043213;28;20210;-73
2023/10/30 10:26:03;;;;;;;6.05;2.13;;;;;;;;;;5043654;28;20165;-73
2023/10/30 10:28:28;;;;;;;6.47;1.83;;;;;;;;;;5044125;28;20025;-75
2023/10/30 10:30:53;;;;;;;4.82;1.85;;;;;;;;;;5044176;28;20036;-73
2023/10/30 10:33:20;;;;;;;4.18;1.73;;;;;;;;;;5046288;28;21158;-73
2023/10/30 10:35:46;;;;;;;5.45;2.30;;;;;;;;;;5045230;28;20490;-74
2023/10/30 10:38:16;;;;;;;6.82;2.33;;;;;;;;;;5045548;28;20182;-75
2023/10/30 10:40:43;;;;;;;14.15;2.70;;;;;;;;;;5049938;28;20025;-76
2023/10/30 10:43:09;;;;;;;3.58;1.88;;;;;;;;;;5047043;28;20777;-76
2023/10/30 10:45:35;;;;;;;3.40;1.92;;;;;;;;;;5048047;28;20644;-74
2023/10/30 10:48:01;;;;;;;5.97;2.60;;;;;;;;;;5046666;28;20055;-74
2023/10/30 10:50:26;;;;;;;9.25;1.98;;;;;;;;;;5047385;28;20440;-73
2023/10/30 10:52:53;;;;;;;4.82;1.63;;;;;;;;;;5046759;28;20336;-76
2023/10/30 10:55:23;;;;;;;5.18;1.42;;;;;;;;;;5047016;28;20027;-74
2023/10/30 10:57:51;;;;;;;5.40;1.60;;;;;;;;;;5046665;28;20036;-74
2023/10/30 11:00:17;;;;;;;2.47;1.38;;;;;;;;;;5047249;28;20025;-73
2023/10/30 11:02:44;;;;;;;4.78;1.60;;;;;;;;;;5047318;28;20028;-73
2023/10/30 11:05:10;;;;;;;2.63;1.73;;;;;;;;;;5046029;28;20035;-77
2023/10/30 11:07:43;;;;;;;3.20;2.15;;;;;;;;;;5048331;28;20029;-74
2023/10/30 11:10:30;;;;;;;3.28;1.73;;;;;;;;;;5046008;28;20356;-73
2023/10/30 11:13:13;;;;;;;2.20;2.00;;;;;;;;;;5046892;28;20042;-73
2023/10/30 11:15:43;;;;;;;4.90;1.83;;;;;;;;;;5045261;28;20032;-71
2023/10/30 11:18:27;;;;;;;3.75;2.10;;;;;;;;;;5046965;28;20345;-74
2023/10/30 11:21:12;;;;;;;3.13;1.80;;;;;;;;;;5048175;28;20029;-73
2023/10/30 11:23:44;;;;;;;3.08;1.80;;;;;;;;;;5046575;28;20071;-74
2023/10/30 11:26:10;;;;;;;3.13;1.70;;;;;;;;;;5046769;28;20440;-73
2023/10/30 11:28:36;;;;;;;5.35;1.70;;;;;;;;;;5048087;28;20031;-72
2023/10/30 11:31:06;;;;;;;2.40;1.35;;;;;;;;;;5046789;28;20037;-71
2023/10/30 11:33:31;;;;;;;1.77;1.38;;;;;;;;;;5047338;28;20031;-76
2023/10/30 11:36:15;;;;;;;4.15;2.05;;;;;;;;;;5046656;28;20448;-72
2023/10/30 11:38:59;;;;;;;2.75;1.42;;;;;;;;;;5047162;28;20041;-71
2023/10/30 11:41:25;;;;;;;3.28;2.50;;;;;;;;;;5046113;28;20467;-71
2023/10/30 11:43:50;;;;;;;2.35;1.40;;;;;;;;;;5046534;28;20041;-71
2023/10/30 11:46:20;;;;;;;2.55;1.70;;;;;;;;;;5046106;28;20324;-76
2023/10/30 11:48:46;;;;;;;4.97;2.00;;;;;;;;;;5045480;28;20075;-71
2023/10/30 11:51:12;;;;;;;3.25;2.70;;;;;;;;;;5045335;28;20024;-76
2023/10/30 11:53:41;;;;;;;4.75;2.63;;;;;;;;;;5045956;28;20021;-74
2023/10/30 11:56:07;;;;;;;3.80;2.17;;;;;;;;;;5046569;28;20020;-73
2023/10/30 11:58:33;;;;;;;4.10;2.15;;;;;;;;;;5045884;28;20039;-71
2023/10/30 12:00:59;;;;;;;5.10;1.75;;;;;;;;;;5044460;28;20020;-74
2023/10/30 12:03:24;;;;;;;2.53;1.70;;;;;;;;;;5046850;28;20122;-73
2023/10/30 12:05:50;;;;;;;3.47;1.20;;;;;;;;;;5048160;28;20120;-73
2023/10/30 12:08:16;;;;;;;3.60;1.70;;;;;;;;;;5045051;28;20350;-70
2023/10/30 12:10:43;;;;;;;3.42;1.70;;;;;;;;;;5044596;28;20024;-74
2023/10/30 12:13:09;;;;;;;3.70;1.55;;;;;;;;;;5045558;28;20115;-73
2023/10/30 12:15:35;;;;;;;3.58;2.08;;;;;;;;;;5044321;28;20059;-71
2023/10/30 12:18:02;;;;;;;2.67;1.60;;;;;;;;;;5045536;28;20056;-70
2023/10/30 12:20:27;;;;;;;4.38;1.50;;;;;;;;;;5045123;28;20029;-72
2023/10/30 12:22:56;;;;;;;1.80;1.40;;;;;;;;;;5046006;28;20025;-74
2023/10/30 12:25:21;;;;;;;4.10;1.80;;;;;;;;;;5043912;28;20041;-72
2023/10/30 12:27:46;;;;;;;3.70;1.55;;;;;;;;;;5044890;28;20463;-71
2023/10/30 12:30:16;;;;;;;6.13;1.75;;;;;;;;;;5047085;28;20036;-74
2023/10/30 12:32:41;;;;;;;3.65;1.63;;;;;;;;;;5045580;28;20023;-72
2023/10/30 12:35:10;;;;;;;1.83;1.52;;;;;;;;;;5044298;28;20036;-73
2023/10/30 12:37:37;;;;;;;4.78;1.75;;;;;;;;;;5043467;28;20048;-71
2023/10/30 12:40:04;;;;;;;3.28;1.40;;;;;;;;;;5047720;28;20065;-74
2023/10/30 12:42:33;;;;;;;4.65;1.42;;;;;;;;;;5046406;28;20525;-72
2023/10/30 12:44:59;;;;;;;5.78;2.50;;;;;;;;;;5044589;28;20391;-75
2023/10/30 12:47:24;;;;;;;2.85;1.45;;;;;;;;;;5046428;28;20041;-72
2023/10/30 12:49:50;;;;;;;2.58;1.60;;;;;;;;;;5045170;28;20106;-76
2023/10/30 12:52:15;;;;;;;3.22;1.60;;;;;;;;;;5045765;28;20079;-72
2023/10/30 12:54:41;;;;;;;4.05;1.80;;;;;;;;;;5046685;28;20040;-72
2023/10/30 12:57:07;;;;;;;6.38;1.83;;;;;;;;;;5045920;28;20491;-71
2023/10/30 12:59:33;;;;;;;3.28;2.08;;;;;;;;;;5044845;28;20025;-72
2023/10/30 13:01:58;;;;;;;2.30;1.55;;;;;;;;;;5044406;28;20039;-73
2023/10/30 13:04:23;;;;;;;4.00;2.33;;;;;;;;;;5045758;28;20738;-74
2023/10/30 13:06:49;;;;;;;7.88;2.45;;;;;;;;;;5044714;28;20029;-76
2023/10/30 13:09:14;;;;;;;3.80;2.05;;;;;;;;;;5043799;28;20033;-72
2023/10/30 13:11:39;;;;;;;5.07;2.00;;;;;;;;;;5044643;28;20111;-72
2023/10/30 13:14:05;;;;;;;3.30;2.00;;;;;;;;;;5044130;28;20060;-72
2023/10/30 13:16:30;;;;;;;4.63;1.83;;;;;;;;;;5047580;28;20032;-73
2023/10/30 13:18:55;;;;;;;2.88;1.90;;;;;;;;;;5043183;28;20448;-74
2023/10/30 13:21:21;;;;;;;2.38;1.92;;;;;;;;;;5046033;28;20163;-73
2023/10/30 13:23:47;;;;;;;3.97;2.00;;;;;;;;;;5044063;28;20044;-74
2023/10/30 13:26:12;;;;;;;4.43;3.10;;;;;;;;;;5045238;28;20020;-73
2023/10/30 13:28:38;;;;;;;7.03;4.22;;;;;;;;;;5044137;28;20036;-77
2023/10/30 13:31:03;;;;;;;5.43;3.55;;;;;;;;;;5045254;28;20064;-73
2023/10/30 13:33:29;;;;;;;6.47;3.97;;;;;;;;;;5044134;28;20033;-75
2023/10/30 13:35:54;;;;;;;5.25;4.45;;;;;;;;;;5044736;28;20402;-73
2023/10/30 13:38:21;;;;;;;5.25;3.70;;;;;;;;;;5045072;28;20080;-74
2023/10/30 13:40:46;;;;;;;5.47;3.80;;;;;;;;;;5044362;28;20032;-73
2023/10/30 13:43:12;;;;;;;5.50;5.00;;;;;;;;;;5045256;28;20190;-73
2023/10/30 13:45:37;;;;;;;8.73;5.50;;;;;;;;;;5043500;28;20031;-74
2023/10/30 13:48:03;;;;;;;8.60;6.03;;;;;;;;;;5044876;28;20037;-75
2023/10/30 13:50:28;;;;;;;8.70;7.80;;;;;;;;;;5043619;28;20031;-74
2023/10/30 13:52:53;;;;;;;6.13;5.32;;;;;;;;;;5046435;28;20029;-75
2023/10/30 13:55:19;;;;;;;4.15;3.47;;;;;;;;;;5044271;28;20120;-76
2023/10/30 13:57:45;;;;;;;4.60;2.80;;;;;;;;;;5046771;28;20071;-74
2023/10/30 14:00:10;;;;;;;5.22;3.17;;;;;;;;;;5042728;28;20439;-74
2023/10/30 14:02:36;;;;;;;4.18;2.33;;;;;;;;;;5046604;28;20024;-73
2023/10/30 14:05:03;;;;;;;2.17;1.95;;;;;;;;;;5043025;28;20075;-76
2023/10/30 14:07:28;;;;;;;5.35;4.90;;;;;;;;;;5036443;28;20515;-73
2023/10/30 14:09:53;;;;;;;7.22;6.53;;;;;;;;;;5040294;28;20104;-77
2023/10/30 14:12:19;;;;;;;8.73;7.95;;;;;;;;;;5039584;28;20100;-75
2023/10/30 14:14:45;;;;;;;10.25;9.15;;;;;;;;;;5028363;28;20032;-75
2023/10/30 14:17:10;;;;;;;10.90;9.80;;;;;;;;;;5029280;28;20124;-73
2023/10/30 14:19:36;;;;;;;6.60;5.97;;;;;;;;;;5025703;28;20025;-77
2023/10/30 14:22:01;;;;;;;28.73;25.73;;;;;;;;;;5035717;28;20108;-75
2023/10/30 14:24:26;;;;;;;7.43;6.55;;;;;;;;;;5037771;28;20113;-75
2023/10/30 14:26:52;;;;;;;11.38;5.47;;;;;;;;;;5033075;28;20040;-77